sensor_id;sensor_type;location;lat;lon;timestamp;pressure;altitude;pressure_sealevel;temperature;humidity
59106;BME280;44891;50.204;8.132;2023-01-28T00:02:05;99035.41;;;1.93;99.07
59106;BME280;44891;50.204;8.132;2023-01-28T00:06:08;99027.31;;;1.96;99.01
59106;BME280;44891;50.204;8.132;2023-01-28T00:10:12;99032.66;;;1.86;98.75
59106;BME280;44891;50.204;8.132;2023-01-28T00:14:15;99038.16;;;1.83;98.58
59106;BME280;44891;50.204;8.132;2023-01-28T00:18:17;99033.78;;;1.84;98.44
59106;BME280;44891;50.204;8.132;2023-01-28T00:22:19;99030.56;;;1.74;98.17
59106;BME280;44891;50.204;8.132;2023-01-28T00:26:21;99035.72;;;1.82;99.00
59106;BME280;44891;50.204;8.132;2023-01-28T00:30:26;99036.06;;;1.79;98.43
59106;BME280;44891;50.204;8.132;2023-01-28T00:34:27;99041.09;;;1.72;98.19
59106;BME280;44891;50.204;8.132;2023-01-28T00:38:29;99042.84;;;1.55;99.28
59106;BME280;44891;50.204;8.132;2023-01-28T00:42:31;99040.91;;;1.66;99.13
59106;BME280;44891;50.204;8.132;2023-01-28T00:46:35;99037.00;;;1.61;98.59
59106;BME280;44891;50.204;8.132;2023-01-28T00:50:36;99035.06;;;1.55;99.78
59106;BME280;44891;50.204;8.132;2023-01-28T00:54:41;99023.72;;;1.48;100.00
59106;BME280;44891;50.204;8.132;2023-01-28T00:58:43;99030.22;;;1.52;99.67
59106;BME280;44891;50.204;8.132;2023-01-28T01:02:47;99032.66;;;1.62;99.79
59106;BME280;44891;50.204;8.132;2023-01-28T01:06:49;99033.63;;;1.61;99.77
59106;BME280;44891;50.204;8.132;2023-01-28T01:10:50;99027.31;;;1.55;98.06
59106;BME280;44891;50.204;8.132;2023-01-28T01:14:52;99023.22;;;1.45;98.97
59106;BME280;44891;50.204;8.132;2023-01-28T01:18:56;99022.28;;;1.54;99.34
59106;BME280;44891;50.204;8.132;2023-01-28T01:22:58;99026.31;;;1.56;99.38
59106;BME280;44891;50.204;8.132;2023-01-28T01:27:00;99036.38;;;1.68;98.51
59106;BME280;44891;50.204;8.132;2023-01-28T01:31:03;99037.34;;;1.67;98.56
59106;BME280;44891;50.204;8.132;2023-01-28T01:35:09;99035.41;;;1.69;98.34
59106;BME280;44891;50.204;8.132;2023-01-28T01:39:13;99036.03;;;1.71;97.71
59106;BME280;44891;50.204;8.132;2023-01-28T01:43:15;99039.28;;;1.64;98.45
59106;BME280;44891;50.204;8.132;2023-01-28T01:47:17;99032.19;;;1.67;98.62
59106;BME280;44891;50.204;8.132;2023-01-28T01:51:22;99034.91;;;1.65;98.36
59106;BME280;44891;50.204;8.132;2023-01-28T01:55:26;99034.59;;;1.68;97.66
59106;BME280;44891;50.204;8.132;2023-01-28T01:59:30;99043.34;;;1.67;97.23
59106;BME280;44891;50.204;8.132;2023-01-28T02:03:35;99044.44;;;1.48;97.92
59106;BME280;44891;50.204;8.132;2023-01-28T02:07:40;99044.44;;;1.48;98.11
59106;BME280;44891;50.204;8.132;2023-01-28T02:11:44;99045.75;;;1.52;96.09
59106;BME280;44891;50.204;8.132;2023-01-28T02:15:46;99037.94;;;1.44;94.77
59106;BME280;44891;50.204;8.132;2023-01-28T02:19:51;99041.84;;;1.48;95.39
59106;BME280;44891;50.204;8.132;2023-01-28T02:24:02;99043.34;;;1.59;94.70
59106;BME280;44891;50.204;8.132;2023-01-28T02:28:15;99051.56;;;1.62;94.59
59106;BME280;44891;50.204;8.132;2023-01-28T02:32:18;99046.56;;;1.61;94.05
59106;BME280;44891;50.204;8.132;2023-01-28T02:36:23;99051.91;;;1.59;93.88
59106;BME280;44891;50.204;8.132;2023-01-28T02:40:28;99050.09;;;1.52;94.66
59106;BME280;44891;50.204;8.132;2023-01-28T02:44:33;99050.94;;;1.52;95.39
59106;BME280;44891;50.204;8.132;2023-01-28T02:48:35;99056.06;;;1.44;95.28
59106;BME280;44891;50.204;8.132;2023-01-28T02:52:40;99058.03;;;1.50;96.14
59106;BME280;44891;50.204;8.132;2023-01-28T02:57:06;99056.75;;;1.54;96.25
59106;BME280;44891;50.204;8.132;2023-01-28T03:01:13;99057.56;;;1.47;94.44
59106;BME280;44891;50.204;8.132;2023-01-28T03:05:18;99058.16;;;1.32;94.88
59106;BME280;44891;50.204;8.132;2023-01-28T03:09:22;99063.28;;;1.24;95.63
59106;BME280;44891;50.204;8.132;2023-01-28T03:13:27;99071.72;;;1.26;95.63
59106;BME280;44891;50.204;8.132;2023-01-28T03:17:51;99073.69;;;1.32;94.89
59106;BME280;44891;50.204;8.132;2023-01-28T03:22:11;99069.16;;;1.34;95.05
59106;BME280;44891;50.204;8.132;2023-01-28T03:26:31;99080.97;;;1.37;93.54
59106;BME280;44891;50.204;8.132;2023-01-28T03:30:54;99080.94;;;1.29;93.31
59106;BME280;44891;50.204;8.132;2023-01-28T03:35:24;99084.81;;;1.25;93.80
59106;BME280;44891;50.204;8.132;2023-01-28T03:39:47;99093.56;;;1.32;93.49
59106;BME280;44891;50.204;8.132;2023-01-28T03:43:49;99079.00;;;1.31;92.48
59106;BME280;44891;50.204;8.132;2023-01-28T03:47:51;99098.09;;;1.30;92.29
59106;BME280;44891;50.204;8.132;2023-01-28T03:51:55;99100.69;;;1.30;92.42
59106;BME280;44891;50.204;8.132;2023-01-28T03:55:56;99095.50;;;1.30;92.19
59106;BME280;44891;50.204;8.132;2023-01-28T03:59:58;99105.22;;;1.36;91.76
59106;BME280;44891;50.204;8.132;2023-01-28T04:04:00;99104.22;;;1.29;91.96
59106;BME280;44891;50.204;8.132;2023-01-28T04:08:04;99109.19;;;1.14;93.04
59106;BME280;44891;50.204;8.132;2023-01-28T04:12:27;99102.09;;;1.24;93.36
59106;BME280;44891;50.204;8.132;2023-01-28T04:16:29;99107.00;;;1.35;92.26
59106;BME280;44891;50.204;8.132;2023-01-28T04:20:31;99107.44;;;1.23;92.53
59106;BME280;44891;50.204;8.132;2023-01-28T04:24:35;99104.50;;;1.18;92.00
59106;BME280;44891;50.204;8.132;2023-01-28T04:28:37;99109.84;;;1.16;93.28
59106;BME280;44891;50.204;8.132;2023-01-28T04:32:39;99112.44;;;1.16;93.34
59106;BME280;44891;50.204;8.132;2023-01-28T04:36:58;99106.47;;;1.24;93.13
59106;BME280;44891;50.204;8.132;2023-01-28T04:41:21;99106.25;;;1.09;93.92
59106;BME280;44891;50.204;8.132;2023-01-28T04:45:24;99100.91;;;1.11;94.72
59106;BME280;44891;50.204;8.132;2023-01-28T04:50:01;99111.00;;;1.22;94.55
59106;BME280;44891;50.204;8.132;2023-01-28T04:54:16;99112.28;;;1.18;94.35
59106;BME280;44891;50.204;8.132;2023-01-28T04:58:19;99119.81;;;1.03;93.99
59106;BME280;44891;50.204;8.132;2023-01-28T05:02:23;99120.63;;;1.03;94.63
59106;BME280;44891;50.204;8.132;2023-01-28T05:06:26;99127.69;;;0.93;94.65
59106;BME280;44891;50.204;8.132;2023-01-28T05:10:30;99112.66;;;0.97;95.04
59106;BME280;44891;50.204;8.132;2023-01-28T05:14:34;99116.06;;;0.97;94.74
59106;BME280;44891;50.204;8.132;2023-01-28T05:18:41;99119.00;;;1.02;95.04
59106;BME280;44891;50.204;8.132;2023-01-28T05:22:47;99126.31;;;1.07;94.80
59106;BME280;44891;50.204;8.132;2023-01-28T05:26:52;99126.19;;;1.17;94.21
59106;BME280;44891;50.204;8.132;2023-01-28T05:30:56;99132.31;;;1.16;94.17
59106;BME280;44891;50.204;8.132;2023-01-28T05:34:58;99136.72;;;1.23;93.44
59106;BME280;44891;50.204;8.132;2023-01-28T05:39:00;99142.84;;;1.14;93.93
59106;BME280;44891;50.204;8.132;2023-01-28T05:43:02;99146.03;;;1.08;93.18
59106;BME280;44891;50.204;8.132;2023-01-28T05:47:13;99142.84;;;1.22;93.08
59106;BME280;44891;50.204;8.132;2023-01-28T05:51:41;99141.97;;;1.05;92.60
59106;BME280;44891;50.204;8.132;2023-01-28T05:55:46;99141.03;;;1.06;93.05
59106;BME280;44891;50.204;8.132;2023-01-28T05:59:48;99144.72;;;1.04;93.02
59106;BME280;44891;50.204;8.132;2023-01-28T06:03:51;99156.84;;;1.03;94.01
59106;BME280;44891;50.204;8.132;2023-01-28T06:07:53;99156.94;;;0.94;94.28
59106;BME280;44891;50.204;8.132;2023-01-28T06:11:55;99156.78;;;0.95;94.22
59106;BME280;44891;50.204;8.132;2023-01-28T06:15:58;99165.47;;;0.86;95.07
59106;BME280;44891;50.204;8.132;2023-01-28T06:20:32;99166.78;;;0.90;95.06
59106;BME280;44891;50.204;8.132;2023-01-28T06:24:35;99170.38;;;0.97;93.54
59106;BME280;44891;50.204;8.132;2023-01-28T06:28:37;99170.97;;;0.91;93.74
59106;BME280;44891;50.204;8.132;2023-01-28T06:32:38;99184.19;;;1.06;93.26
59106;BME280;44891;50.204;8.132;2023-01-28T06:36:42;99183.97;;;0.99;92.91
59106;BME280;44891;50.204;8.132;2023-01-28T06:40:43;99184.13;;;0.98;92.99
59106;BME280;44891;50.204;8.132;2023-01-28T06:44:45;99174.72;;;0.97;93.53
59106;BME280;44891;50.204;8.132;2023-01-28T06:48:47;99190.69;;;0.92;93.14
59106;BME280;44891;50.204;8.132;2023-01-28T06:52:50;99196.72;;;0.93;93.86
59106;BME280;44891;50.204;8.132;2023-01-28T06:56:52;99193.56;;;0.81;93.18
59106;BME280;44891;50.204;8.132;2023-01-28T07:00:54;99208.16;;;0.90;90.94
59106;BME280;44891;50.204;8.132;2023-01-28T07:04:56;99208.16;;;0.90;90.76
59106;BME280;44891;50.204;8.132;2023-01-28T07:08:59;99200.94;;;0.76;91.89
59106;BME280;44891;50.204;8.132;2023-01-28T07:13:02;99206.84;;;0.86;90.95
59106;BME280;44891;50.204;8.132;2023-01-28T07:17:04;99206.97;;;0.85;91.69
59106;BME280;44891;50.204;8.132;2023-01-28T07:21:05;99217.53;;;0.91;90.71
59106;BME280;44891;50.204;8.132;2023-01-28T07:25:09;99215.91;;;0.90;90.84
59106;BME280;44891;50.204;8.132;2023-01-28T07:29:11;99223.19;;;0.87;91.30
59106;BME280;44891;50.204;8.132;2023-01-28T07:33:13;99225.09;;;0.85;91.54
59106;BME280;44891;50.204;8.132;2023-01-28T07:37:15;99224.88;;;0.78;90.89
59106;BME280;44891;50.204;8.132;2023-01-28T07:41:18;99222.50;;;0.85;90.81
59106;BME280;44891;50.204;8.132;2023-01-28T07:45:20;99215.91;;;0.90;90.54
59106;BME280;44891;50.204;8.132;2023-01-28T07:49:23;99217.69;;;0.90;90.80
59106;BME280;44891;50.204;8.132;2023-01-28T07:53:24;99227.81;;;0.83;90.37
59106;BME280;44891;50.204;8.132;2023-01-28T07:57:28;99233.00;;;0.83;89.77
59106;BME280;44891;50.204;8.132;2023-01-28T08:01:30;99175.13;;;0.58;89.66
59106;BME280;44891;50.204;8.132;2023-01-28T08:05:36;99230.41;;;0.83;89.43
59106;BME280;44891;50.204;8.132;2023-01-28T08:09:40;99233.94;;;1.00;89.41
59106;BME280;44891;50.204;8.132;2023-01-28T08:13:45;99234.59;;;1.02;87.82
59106;BME280;44891;50.204;8.132;2023-01-28T08:17:47;99247.91;;;0.89;87.94
59106;BME280;44891;50.204;8.132;2023-01-28T08:21:49;99238.91;;;0.93;87.49
59106;BME280;44891;50.204;8.132;2023-01-28T08:25:51;99244.06;;;0.93;87.41
59106;BME280;44891;50.204;8.132;2023-01-28T08:29:55;99244.94;;;1.02;88.17
59106;BME280;44891;50.204;8.132;2023-01-28T08:33:57;99241.53;;;1.01;83.60
59106;BME280;44891;50.204;8.132;2023-01-28T08:37:59;99253.13;;;0.97;85.77
59106;BME280;44891;50.204;8.132;2023-01-28T08:42:01;99252.88;;;0.82;86.45
59106;BME280;44891;50.204;8.132;2023-01-28T08:46:05;99250.59;;;1.05;86.79
59106;BME280;44891;50.204;8.132;2023-01-28T08:50:07;99258.13;;;1.43;88.17
59106;BME280;44891;50.204;8.132;2023-01-28T08:54:09;99258.63;;;1.20;85.92
59106;BME280;44891;50.204;8.132;2023-01-28T08:58:12;99258.63;;;1.20;84.17
59106;BME280;44891;50.204;8.132;2023-01-28T09:02:16;99248.50;;;1.27;83.10
59106;BME280;44891;50.204;8.132;2023-01-28T09:06:17;99258.06;;;1.08;84.94
59106;BME280;44891;50.204;8.132;2023-01-28T09:10:19;99256.75;;;1.04;85.65
59106;BME280;44891;50.204;8.132;2023-01-28T09:14:21;99260.66;;;1.08;83.93
59106;BME280;44891;50.204;8.132;2023-01-28T09:18:25;99259.25;;;1.14;83.44
59106;BME280;44891;50.204;8.132;2023-01-28T09:22:26;99266.72;;;1.25;83.44
59106;BME280;44891;50.204;8.132;2023-01-28T09:26:28;99272.22;;;1.22;82.08
59106;BME280;44891;50.204;8.132;2023-01-28T09:30:34;99276.53;;;1.14;82.14
59106;BME280;44891;50.204;8.132;2023-01-28T09:34:37;99278.81;;;1.17;81.20
59106;BME280;44891;50.204;8.132;2023-01-28T09:38:39;99284.84;;;0.99;82.13
59106;BME280;44891;50.204;8.132;2023-01-28T09:42:45;99286.81;;;0.79;82.56
59106;BME280;44891;50.204;8.132;2023-01-28T09:46:50;99297.91;;;0.98;82.43
59106;BME280;44891;50.204;8.132;2023-01-28T09:50:54;99292.00;;;1.05;81.96
59106;BME280;44891;50.204;8.132;2023-01-28T09:54:58;99298.59;;;1.00;81.41
59106;BME280;44891;50.204;8.132;2023-01-28T09:59:03;99304.75;;;0.81;82.56
59106;BME280;44891;50.204;8.132;2023-01-28T10:03:20;99301.63;;;0.95;82.93
59106;BME280;44891;50.204;8.132;2023-01-28T10:07:35;99301.63;;;0.95;82.04
59106;BME280;44891;50.204;8.132;2023-01-28T10:11:42;99321.06;;;0.81;83.24
59106;BME280;44891;50.204;8.132;2023-01-28T10:15:49;99319.88;;;0.94;82.37
59106;BME280;44891;50.204;8.132;2023-01-28T10:19:55;99317.72;;;1.07;81.66
59106;BME280;44891;50.204;8.132;2023-01-28T10:24:02;99300.38;;;0.99;81.35
59106;BME280;44891;50.204;8.132;2023-01-28T10:28:04;99324.38;;;1.09;80.46
59106;BME280;44891;50.204;8.132;2023-01-28T10:32:15;99311.78;;;1.15;80.45
59106;BME280;44891;50.204;8.132;2023-01-28T10:36:18;99309.22;;;1.15;80.60
59106;BME280;44891;50.204;8.132;2023-01-28T10:40:21;99309.22;;;1.15;80.98
59106;BME280;44891;50.204;8.132;2023-01-28T10:44:26;99306.47;;;1.16;80.56
59106;BME280;44891;50.204;8.132;2023-01-28T10:48:31;99311.25;;;1.29;81.16
59106;BME280;44891;50.204;8.132;2023-01-28T10:52:34;99318.81;;;1.22;80.38
59106;BME280;44891;50.204;8.132;2023-01-28T10:56:37;99308.97;;;1.26;81.41
59106;BME280;44891;50.204;8.132;2023-01-28T11:00:43;99309.88;;;1.17;82.45
59106;BME280;44891;50.204;8.132;2023-01-28T11:04:45;99313.16;;;0.83;81.85
59106;BME280;44891;50.204;8.132;2023-01-28T11:08:46;99321.88;;;0.82;82.14
59106;BME280;44891;50.204;8.132;2023-01-28T11:12:54;99270.91;;;0.57;80.95
59106;BME280;44891;50.204;8.132;2023-01-28T11:16:56;99315.31;;;0.88;81.22
59106;BME280;44891;50.204;8.132;2023-01-28T11:20:59;99307.28;;;0.99;80.48
59106;BME280;44891;50.204;8.132;2023-01-28T11:25:03;99299.09;;;0.86;80.47
59106;BME280;44891;50.204;8.132;2023-01-28T11:29:18;99303.13;;;0.80;79.98
59106;BME280;44891;50.204;8.132;2023-01-28T11:33:23;99302.13;;;0.99;80.27
59106;BME280;44891;50.204;8.132;2023-01-28T11:37:27;99301.00;;;1.19;80.21
59106;BME280;44891;50.204;8.132;2023-01-28T11:41:30;99295.19;;;1.25;79.29
59106;BME280;44891;50.204;8.132;2023-01-28T11:45:37;99296.50;;;1.03;79.95
59106;BME280;44891;50.204;8.132;2023-01-28T11:49:44;99291.94;;;0.97;77.57
59106;BME280;44891;50.204;8.132;2023-01-28T11:53:51;99292.31;;;1.02;78.84
59106;BME280;44891;50.204;8.132;2023-01-28T11:57:57;99307.50;;;1.05;78.16
59106;BME280;44891;50.204;8.132;2023-01-28T12:02:08;99298.88;;;0.97;78.71
59106;BME280;44891;50.204;8.132;2023-01-28T12:06:27;99301.63;;;0.95;79.93
59106;BME280;44891;50.204;8.132;2023-01-28T12:10:33;99295.47;;;0.96;80.17
59106;BME280;44891;50.204;8.132;2023-01-28T12:14:44;99283.09;;;0.82;79.95
59106;BME280;44891;50.204;8.132;2023-01-28T12:19:03;99275.78;;;0.77;79.68
59106;BME280;44891;50.204;8.132;2023-01-28T12:23:13;99272.25;;;0.61;79.76
59106;BME280;44891;50.204;8.132;2023-01-28T12:27:24;99274.31;;;0.57;78.39
59106;BME280;44891;50.204;8.132;2023-01-28T12:31:40;99277.53;;;0.59;79.53
59106;BME280;44891;50.204;8.132;2023-01-28T12:35:47;99277.19;;;0.54;80.83
59106;BME280;44891;50.204;8.132;2023-01-28T12:39:56;99273.72;;;0.63;79.11
59106;BME280;44891;50.204;8.132;2023-01-28T12:44:00;99273.72;;;0.63;79.04
59106;BME280;44891;50.204;8.132;2023-01-28T12:48:08;99261.38;;;0.75;77.59
59106;BME280;44891;50.204;8.132;2023-01-28T12:52:14;99259.38;;;0.69;77.89
59106;BME280;44891;50.204;8.132;2023-01-28T12:56:18;99258.41;;;0.88;78.06
59106;BME280;44891;50.204;8.132;2023-01-28T13:00:24;99265.69;;;0.92;76.72
59106;BME280;44891;50.204;8.132;2023-01-28T13:04:30;99274.38;;;0.83;76.69
59106;BME280;44891;50.204;8.132;2023-01-28T13:08:36;99284.50;;;0.76;75.80
59106;BME280;44891;50.204;8.132;2023-01-28T13:12:38;99284.06;;;0.63;76.24
59106;BME280;44891;50.204;8.132;2023-01-28T13:16:41;99291.59;;;0.57;75.03
59106;BME280;44891;50.204;8.132;2023-01-28T13:20:46;99302.47;;;0.60;72.90
59106;BME280;44891;50.204;8.132;2023-01-28T13:24:49;99297.19;;;0.70;72.85
59106;BME280;44891;50.204;8.132;2023-01-28T13:28:51;99297.94;;;0.80;72.41
59106;BME280;44891;50.204;8.132;2023-01-28T13:32:55;99293.81;;;0.87;72.95
59106;BME280;44891;50.204;8.132;2023-01-28T13:36:57;99297.19;;;0.88;72.71
59106;BME280;44891;50.204;8.132;2023-01-28T13:41:01;99280.34;;;1.01;71.53
59106;BME280;44891;50.204;8.132;2023-01-28T13:45:19;99291.28;;;0.95;72.32
59106;BME280;44891;50.204;8.132;2023-01-28T13:49:23;99298.66;;;0.90;72.64
59106;BME280;44891;50.204;8.132;2023-01-28T13:53:35;99306.03;;;1.03;72.19
59106;BME280;44891;50.204;8.132;2023-01-28T13:57:45;99301.25;;;0.90;71.12
59106;BME280;44891;50.204;8.132;2023-01-28T14:02:02;99288.91;;;0.84;70.80
59106;BME280;44891;50.204;8.132;2023-01-28T14:06:21;99296.94;;;0.99;71.02
59106;BME280;44891;50.204;8.132;2023-01-28T14:15:02;99311.16;;;0.95;71.65
59106;BME280;44891;50.204;8.132;2023-01-28T14:19:08;99310.84;;;0.98;71.48
59106;BME280;44891;50.204;8.132;2023-01-28T14:23:13;99311.06;;;1.04;71.70
59106;BME280;44891;50.204;8.132;2023-01-28T14:27:17;99311.44;;;1.09;70.76
59106;BME280;44891;50.204;8.132;2023-01-28T14:31:23;99301.53;;;1.05;69.29
59106;BME280;44891;50.204;8.132;2023-01-28T14:35:27;99295.47;;;1.14;70.22
59106;BME280;44891;50.204;8.132;2023-01-28T14:39:30;99288.50;;;1.15;69.99
59106;BME280;44891;50.204;8.132;2023-01-28T14:43:32;99278.72;;;1.26;68.53
59106;BME280;44891;50.204;8.132;2023-01-28T14:47:42;99285.97;;;1.23;68.87
59106;BME280;44891;50.204;8.132;2023-01-28T14:56:07;99280.22;;;1.11;69.33
59106;BME280;44891;50.204;8.132;2023-01-28T15:00:15;99285.44;;;0.93;69.64
59106;BME280;44891;50.204;8.132;2023-01-28T15:04:26;99282.88;;;0.93;70.12
59106;BME280;44891;50.204;8.132;2023-01-28T15:08:28;99276.78;;;1.02;68.97
59106;BME280;44891;50.204;8.132;2023-01-28T15:12:32;99280.94;;;0.95;68.97
59106;BME280;44891;50.204;8.132;2023-01-28T15:16:34;99276.63;;;1.04;67.64
59106;BME280;44891;50.204;8.132;2023-01-28T15:20:38;99263.91;;;1.11;68.33
59106;BME280;44891;50.204;8.132;2023-01-28T15:24:44;99274.28;;;1.19;68.71
59106;BME280;44891;50.204;8.132;2023-01-28T15:28:46;99283.53;;;1.21;69.67
59106;BME280;44891;50.204;8.132;2023-01-28T15:32:58;99274.09;;;1.12;69.71
59106;BME280;44891;50.204;8.132;2023-01-28T15:37:01;99267.81;;;1.15;68.82
59106;BME280;44891;50.204;8.132;2023-01-28T15:41:03;99281.34;;;1.08;69.42
59106;BME280;44891;50.204;8.132;2023-01-28T15:45:12;99275.00;;;1.03;68.52
59106;BME280;44891;50.204;8.132;2023-01-28T15:49:15;99282.41;;;0.98;69.56
59106;BME280;44891;50.204;8.132;2023-01-28T15:53:19;99288.84;;;0.94;69.29
59106;BME280;44891;50.204;8.132;2023-01-28T15:57:21;99281.00;;;0.86;69.46
59106;BME280;44891;50.204;8.132;2023-01-28T16:01:26;99288.31;;;0.72;69.24
59106;BME280;44891;50.204;8.132;2023-01-28T16:05:30;99302.72;;;0.39;71.04
59106;BME280;44891;50.204;8.132;2023-01-28T16:09:35;99318.13;;;0.31;72.57
59106;BME280;44891;50.204;8.132;2023-01-28T16:13:40;99310.13;;;0.34;72.83
59106;BME280;44891;50.204;8.132;2023-01-28T16:17:44;99300.78;;;0.23;72.51
59106;BME280;44891;50.204;8.132;2023-01-28T16:21:48;99312.94;;;0.41;73.64
59106;BME280;44891;50.204;8.132;2023-01-28T16:25:58;99319.09;;;0.30;72.95
59106;BME280;44891;50.204;8.132;2023-01-28T16:30:01;99316.13;;;0.25;73.73
59106;BME280;44891;50.204;8.132;2023-01-28T16:34:02;99329.63;;;0.19;74.05
59106;BME280;44891;50.204;8.132;2023-01-28T16:38:04;99332.19;;;0.01;74.47
59106;BME280;44891;50.204;8.132;2023-01-28T16:42:07;99329.19;;;-0.04;76.24
59106;BME280;44891;50.204;8.132;2023-01-28T16:46:10;99328.53;;;-0.06;77.17
59106;BME280;44891;50.204;8.132;2023-01-28T16:50:13;99324.94;;;0.05;76.04
59106;BME280;44891;50.204;8.132;2023-01-28T16:54:15;99324.44;;;0.01;75.67
59106;BME280;44891;50.204;8.132;2023-01-28T16:58:20;99329.78;;;-0.10;75.70
59106;BME280;44891;50.204;8.132;2023-01-28T17:02:23;99328.88;;;-0.19;76.29
59106;BME280;44891;50.204;8.132;2023-01-28T17:06:25;99324.34;;;-0.17;75.67
59106;BME280;44891;50.204;8.132;2023-01-28T17:10:27;99332.19;;;-0.09;75.76
59106;BME280;44891;50.204;8.132;2023-01-28T17:14:30;99341.53;;;-0.35;78.84
59106;BME280;44891;50.204;8.132;2023-01-28T17:18:32;99337.19;;;-0.35;79.23
59106;BME280;44891;50.204;8.132;2023-01-28T17:22:34;99322.50;;;-0.34;78.87
59106;BME280;44891;50.204;8.132;2023-01-28T17:26:36;99328.47;;;-0.24;80.44
59106;BME280;44891;50.204;8.132;2023-01-28T17:30:40;99331.25;;;-0.45;81.01
59106;BME280;44891;50.204;8.132;2023-01-28T17:34:42;99340.06;;;-0.38;80.15
59106;BME280;44891;50.204;8.132;2023-01-28T17:38:44;99348.06;;;-0.41;80.77
59106;BME280;44891;50.204;8.132;2023-01-28T17:42:46;99358.13;;;-0.38;78.88
59106;BME280;44891;50.204;8.132;2023-01-28T17:46:49;99372.53;;;-0.55;79.99
59106;BME280;44891;50.204;8.132;2023-01-28T17:50:54;99379.22;;;-0.62;81.30
59106;BME280;44891;50.204;8.132;2023-01-28T17:54:56;99386.28;;;-0.64;82.89
59106;BME280;44891;50.204;8.132;2023-01-28T17:58:58;99391.31;;;-0.52;82.15
59106;BME280;44891;50.204;8.132;2023-01-28T18:03:03;99408.41;;;-0.51;82.01
59106;BME280;44891;50.204;8.132;2023-01-28T18:07:05;99415.16;;;-0.41;82.93
59106;BME280;44891;50.204;8.132;2023-01-28T18:11:11;99418.97;;;-0.35;82.72
59106;BME280;44891;50.204;8.132;2023-01-28T18:15:13;99434.59;;;-0.46;82.90
59106;BME280;44891;50.204;8.132;2023-01-28T18:19:16;99424.69;;;-0.51;83.35
59106;BME280;44891;50.204;8.132;2023-01-28T18:23:18;99422.94;;;-0.50;82.87
59106;BME280;44891;50.204;8.132;2023-01-28T18:27:20;99427.25;;;-0.41;82.12
59106;BME280;44891;50.204;8.132;2023-01-28T18:31:22;99416.25;;;-0.43;81.18
59106;BME280;44891;50.204;8.132;2023-01-28T18:35:26;99434.31;;;-0.34;78.08
59106;BME280;44891;50.204;8.132;2023-01-28T18:39:28;99426.72;;;-0.25;81.17
59106;BME280;44891;50.204;8.132;2023-01-28T18:43:30;99427.59;;;-0.07;81.51
59106;BME280;44891;50.204;8.132;2023-01-28T18:47:34;99426.00;;;-0.28;81.05
59106;BME280;44891;50.204;8.132;2023-01-28T18:51:38;99420.34;;;-0.50;80.53
59106;BME280;44891;50.204;8.132;2023-01-28T18:55:40;99424.66;;;-0.22;78.94
59106;BME280;44891;50.204;8.132;2023-01-28T18:59:42;99428.03;;;-0.12;79.52
59106;BME280;44891;50.204;8.132;2023-01-28T19:03:44;99423.84;;;-0.22;81.68
59106;BME280;44891;50.204;8.132;2023-01-28T19:07:47;99431.69;;;-0.14;81.68
59106;BME280;44891;50.204;8.132;2023-01-28T19:11:49;99429.66;;;-0.11;78.25
59106;BME280;44891;50.204;8.132;2023-01-28T19:15:52;99434.66;;;-0.09;78.12
59106;BME280;44891;50.204;8.132;2023-01-28T19:19:53;99435.63;;;-0.20;79.56
59106;BME280;44891;50.204;8.132;2023-01-28T19:23:57;99430.88;;;-0.15;79.39
59106;BME280;44891;50.204;8.132;2023-01-28T19:27:59;99444.03;;;-0.08;77.25
59106;BME280;44891;50.204;8.132;2023-01-28T19:32:01;99443.09;;;-0.07;77.66
59106;BME280;44891;50.204;8.132;2023-01-28T19:36:04;99432.75;;;-0.07;77.11
59106;BME280;44891;50.204;8.132;2023-01-28T19:40:08;99432.75;;;-0.07;78.47
59106;BME280;44891;50.204;8.132;2023-01-28T19:44:10;99430.19;;;-0.07;78.73
59106;BME280;44891;50.204;8.132;2023-01-28T19:48:12;99419.53;;;0.06;76.69
59106;BME280;44891;50.204;8.132;2023-01-28T19:52:14;99422.41;;;0.03;76.23
59106;BME280;44891;50.204;8.132;2023-01-28T19:56:18;99431.81;;;-0.06;77.87
59106;BME280;44891;50.204;8.132;2023-01-28T20:00:20;99440.25;;;-0.14;78.90
59106;BME280;44891;50.204;8.132;2023-01-28T20:04:22;99447.44;;;-0.08;77.47
59106;BME280;44891;50.204;8.132;2023-01-28T20:08:24;99454.22;;;-0.07;77.61
59106;BME280;44891;50.204;8.132;2023-01-28T20:12:27;99461.31;;;-0.09;77.44
59106;BME280;44891;50.204;8.132;2023-01-28T20:16:30;99462.91;;;0.02;76.48
59106;BME280;44891;50.204;8.132;2023-01-28T20:20:32;99455.88;;;-0.06;75.19
59106;BME280;44891;50.204;8.132;2023-01-28T20:24:34;99464.84;;;0.00;75.95
59106;BME280;44891;50.204;8.132;2023-01-28T20:28:37;99456.81;;;-0.07;76.94
59106;BME280;44891;50.204;8.132;2023-01-28T20:32:39;99459.94;;;-0.03;77.30
59106;BME280;44891;50.204;8.132;2023-01-28T20:36:41;99459.53;;;-0.08;77.48
59106;BME280;44891;50.204;8.132;2023-01-28T20:40:42;99461.75;;;-0.23;75.94
59106;BME280;44891;50.204;8.132;2023-01-28T20:44:47;99457.25;;;-0.21;74.93
59106;BME280;44891;50.204;8.132;2023-01-28T20:48:49;99449.38;;;-0.19;76.87
59106;BME280;44891;50.204;8.132;2023-01-28T20:52:51;99459.38;;;0.03;77.63
59106;BME280;44891;50.204;8.132;2023-01-28T20:56:53;99459.78;;;-0.02;76.53
59106;BME280;44891;50.204;8.132;2023-01-28T21:00:58;99460.22;;;-0.06;76.42
59106;BME280;44891;50.204;8.132;2023-01-28T21:05:00;99460.53;;;-0.19;75.58
59106;BME280;44891;50.204;8.132;2023-01-28T21:09:03;99461.84;;;-0.15;76.33
59106;BME280;44891;50.204;8.132;2023-01-28T21:13:05;99452.38;;;-0.24;78.04
59106;BME280;44891;50.204;8.132;2023-01-28T21:17:08;99459.13;;;-0.13;76.65
59106;BME280;44891;50.204;8.132;2023-01-28T21:21:11;99455.88;;;-0.15;77.69
59106;BME280;44891;50.204;8.132;2023-01-28T21:25:14;99449.38;;;-0.19;78.84
59106;BME280;44891;50.204;8.132;2023-01-28T21:29:16;99450.19;;;-0.29;79.12
59106;BME280;44891;50.204;8.132;2023-01-28T21:33:19;99448.84;;;-0.42;80.11
59106;BME280;44891;50.204;8.132;2023-01-28T21:37:22;99451.19;;;-0.39;80.45
59106;BME280;44891;50.204;8.132;2023-01-28T21:41:23;99460.13;;;-0.53;81.01
59106;BME280;44891;50.204;8.132;2023-01-28T21:45:25;99455.38;;;-0.38;80.93
59106;BME280;44891;50.204;8.132;2023-01-28T21:49:29;99448.56;;;-0.30;80.79
59106;BME280;44891;50.204;8.132;2023-01-28T21:53:31;99445.44;;;-0.23;79.33
59106;BME280;44891;50.204;8.132;2023-01-28T21:57:35;99448.88;;;-0.33;79.77